Time;durP1;ratioP1;P1;durP2;ratioP2;P2;SDS_P1;SDS_P2;PMS_P1;PMS_P2;Temp;Humidity;BMP_temperature;BMP_pressure;BME280_temperature;BME280_humidity;BME280_pressure;Samples;Min_cycle;Max_cycle;Signal;HPM_P1;HPM_P2
2021/05/19 00:01:36;;;;;;;8.82;7.93;;;10.90;99.90;;;;;;5049117;28;20052;-44
2021/05/19 00:04:02;;;;;;;8.90;7.60;;;10.90;99.90;;;;;;5049013;28;20107;-43
2021/05/19 00:06:27;;;;;;;11.43;7.35;;;10.90;99.90;;;;;;5048856;28;20104;-44
2021/05/19 00:08:53;;;;;;;9.45;7.82;;;10.80;99.90;;;;;;5047594;28;20036;-45
2021/05/19 00:11:19;;;;;;;10.82;8.02;;;10.80;99.90;;;;;;5048825;28;20028;-46
2021/05/19 00:13:44;;;;;;;20.63;8.35;;;10.80;99.90;;;;;;5049098;28;20029;-45
2021/05/19 00:16:10;;;;;;;10.55;8.80;;;10.70;99.90;;;;;;5048950;28;20458;-46
2021/05/19 00:18:36;;;;;;;10.40;8.75;;;10.70;99.90;;;;;;5048219;28;20439;-45
2021/05/19 00:21:03;;;;;;;11.48;8.07;;;10.70;99.90;;;;;;5048654;28;20474;-45
2021/05/19 00:23:29;;;;;;;10.90;8.13;;;10.60;99.90;;;;;;5048549;28;20033;-47
2021/05/19 00:25:55;;;;;;;11.30;8.43;;;10.60;99.90;;;;;;5049067;28;20059;-44
2021/05/19 00:28:21;;;;;;;12.00;8.15;;;10.60;99.90;;;;;;5048020;28;20056;-45
2021/05/19 00:30:50;;;;;;;11.13;8.02;;;10.60;99.90;;;;;;5048615;28;20253;-46
2021/05/19 00:33:15;;;;;;;12.15;8.80;;;10.50;99.90;;;;;;5048466;28;20025;-47
2021/05/19 00:35:41;;;;;;;12.35;8.73;;;10.50;99.90;;;;;;5048454;28;20371;-45
2021/05/19 00:38:06;;;;;;;12.43;8.50;;;10.50;99.90;;;;;;5047571;28;20024;-44
2021/05/19 00:40:32;;;;;;;11.20;8.65;;;10.50;99.90;;;;;;5048649;28;20037;-46
2021/05/19 00:42:58;;;;;;;10.43;7.88;;;10.50;99.90;;;;;;5048627;28;20052;-45
2021/05/19 00:45:24;;;;;;;11.05;8.40;;;10.50;99.90;;;;;;5047026;28;20021;-44
2021/05/19 00:47:50;;;;;;;12.65;8.88;;;10.40;99.90;;;;;;5047710;28;20025;-47
2021/05/19 00:50:22;;;;;;;12.15;9.13;;;10.40;99.90;;;;;;5048096;28;20041;-44
2021/05/19 00:52:47;;;;;;;14.65;8.95;;;10.30;99.90;;;;;;5048370;28;20499;-46
2021/05/19 00:55:13;;;;;;;12.40;9.60;;;10.30;99.90;;;;;;5048199;28;20025;-46
2021/05/19 00:57:40;;;;;;;12.30;8.23;;;10.30;99.90;;;;;;5047720;28;20025;-44
2021/05/19 01:00:08;;;;;;;12.63;9.85;;;10.20;99.90;;;;;;5048722;28;20029;-44
2021/05/19 01:02:35;;;;;;;12.00;10.15;;;10.20;99.90;;;;;;5048152;28;20395;-45
2021/05/19 01:05:02;;;;;;;13.27;9.30;;;10.20;99.90;;;;;;5048062;28;20032;-44
2021/05/19 01:07:29;;;;;;;13.52;9.07;;;10.10;99.90;;;;;;5049271;28;20053;-45
2021/05/19 01:09:55;;;;;;;12.10;9.85;;;10.00;99.90;;;;;;5051997;28;20029;-46
2021/05/19 01:12:23;;;;;;;12.35;9.85;;;10.00;99.90;;;;;;5050894;28;20236;-45
2021/05/19 01:14:50;;;;;;;13.60;9.70;;;9.90;99.90;;;;;;5052151;28;20127;-44
2021/05/19 01:17:16;;;;;;;10.98;9.25;;;9.90;99.90;;;;;;5051925;28;20514;-45
2021/05/19 01:19:45;;;;;;;11.90;9.30;;;9.90;99.90;;;;;;5051581;28;20513;-45
2021/05/19 01:22:28;;;;;;;15.40;10.88;;;9.80;99.90;;;;;;5034354;28;20382;-45
2021/05/19 01:24:54;;;;;;;14.18;10.13;;;9.70;99.90;;;;;;5032096;28;20029;-44
2021/05/19 01:27:20;;;;;;;14.75;10.38;;;9.70;99.90;;;;;;5031680;28;20503;-45
2021/05/19 01:29:53;;;;;;;15.98;11.50;;;9.70;99.90;;;;;;5031322;28;20032;-45
2021/05/19 01:32:19;;;;;;;16.95;11.63;;;9.60;99.90;;;;;;5032152;28;20053;-45
2021/05/19 01:34:45;;;;;;;15.63;11.07;;;9.60;99.90;;;;;;5032120;28;20103;-45
2021/05/19 01:37:13;;;;;;;14.73;11.35;;;9.60;99.90;;;;;;5030341;28;20032;-45
2021/05/19 01:39:39;;;;;;;15.32;10.98;;;9.50;99.90;;;;;;5031353;28;20083;-44
2021/05/19 01:42:05;;;;;;;15.27;11.18;;;9.50;99.90;;;;;;5030487;28;20029;-44
2021/05/19 01:44:31;;;;;;;14.38;10.60;;;9.50;99.90;;;;;;5031652;28;20029;-44
2021/05/19 01:46:56;;;;;;;13.57;9.90;;;9.40;99.90;;;;;;5031604;28;20109;-45
2021/05/19 01:49:25;;;;;;;16.70;11.52;;;9.40;99.90;;;;;;5030880;28;20124;-44
2021/05/19 01:51:52;;;;;;;14.10;10.95;;;9.40;99.90;;;;;;5031444;28;20578;-44
2021/05/19 01:54:20;;;;;;;15.23;11.65;;;9.30;99.90;;;;;;5031623;28;20124;-44
2021/05/19 01:56:45;;;;;;;15.10;10.55;;;9.30;99.90;;;;;;5030602;28;20065;-44
2021/05/19 01:59:11;;;;;;;15.30;11.13;;;9.20;99.90;;;;;;5030892;28;20065;-46
2021/05/19 02:01:36;;;;;;;17.08;11.75;;;9.20;99.90;;;;;;5031758;28;20025;-45
2021/05/19 02:04:13;;;;;;;14.50;10.98;;;9.20;99.90;;;;;;5031565;28;20029;-45
2021/05/19 02:06:47;;;;;;;15.70;12.32;;;9.10;99.90;;;;;;5031266;28;20108;-45
2021/05/19 02:09:14;;;;;;;16.38;13.43;;;9.10;99.90;;;;;;5030632;28;20064;-42
2021/05/19 02:11:39;;;;;;;19.10;12.07;;;9.10;99.90;;;;;;5031402;28;20116;-44
2021/05/19 02:14:06;;;;;;;15.75;12.52;;;9.00;99.90;;;;;;5031216;28;20328;-44
2021/05/19 02:16:31;;;;;;;18.48;13.60;;;9.00;99.90;;;;;;5030008;28;20416;-45
2021/05/19 02:18:57;;;;;;;16.05;12.13;;;8.90;99.90;;;;;;5029667;28;20029;-45
2021/05/19 02:21:23;;;;;;;19.83;13.63;;;8.90;99.90;;;;;;5028173;28;20117;-45
2021/05/19 02:23:48;;;;;;;18.08;12.57;;;8.90;99.90;;;;;;5029268;28;20426;-45
2021/05/19 02:26:14;;;;;;;19.77;12.90;;;8.80;99.90;;;;;;5031505;28;20635;-44
2021/05/19 02:28:39;;;;;;;22.33;13.05;;;8.80;99.90;;;;;;5030451;28;20038;-45
2021/05/19 02:31:05;;;;;;;19.98;13.63;;;8.80;99.90;;;;;;5030979;28;20498;-45
2021/05/19 02:33:30;;;;;;;19.92;13.38;;;8.80;99.90;;;;;;5033187;28;20029;-45
2021/05/19 02:35:57;;;;;;;19.50;14.25;;;8.80;99.90;;;;;;5039600;28;20100;-45
2021/05/19 02:38:23;;;;;;;17.50;12.40;;;8.80;99.90;;;;;;5040242;28;20016;-47
2021/05/19 02:40:49;;;;;;;19.85;13.52;;;8.70;99.90;;;;;;5040403;28;20026;-48
2021/05/19 02:43:15;;;;;;;19.48;12.98;;;8.70;99.90;;;;;;5041175;28;20040;-45
2021/05/19 02:45:41;;;;;;;22.60;14.98;;;8.70;99.90;;;;;;5039142;28;20033;-45
2021/05/19 02:48:08;;;;;;;20.42;13.30;;;8.70;99.90;;;;;;5040080;28;20547;-44
2021/05/19 02:50:34;;;;;;;18.15;13.85;;;8.70;99.90;;;;;;5038550;28;20029;-44
2021/05/19 02:52:59;;;;;;;21.08;14.38;;;8.70;99.90;;;;;;5039837;28;20091;-44
2021/05/19 02:55:26;;;;;;;21.08;14.10;;;8.80;99.90;;;;;;5041302;28;20351;-45
2021/05/19 02:57:54;;;;;;;21.58;14.32;;;8.80;99.90;;;;;;5038434;28;20078;-44
2021/05/19 03:00:19;;;;;;;19.83;13.90;;;8.80;99.90;;;;;;5040677;28;20024;-45
2021/05/19 03:02:47;;;;;;;20.92;15.57;;;8.80;99.90;;;;;;5039563;28;20025;-45
2021/05/19 03:05:13;;;;;;;16.77;13.65;;;8.80;99.90;;;;;;5039142;28;20113;-45
2021/05/19 03:07:38;;;;;;;27.88;15.90;;;8.90;99.90;;;;;;5038537;28;20048;-45
2021/05/19 03:10:05;;;;;;;21.38;15.40;;;8.90;99.90;;;;;;5038787;28;20041;-45
2021/05/19 03:12:30;;;;;;;22.58;15.90;;;9.00;99.90;;;;;;5039395;28;20491;-45
2021/05/19 03:14:56;;;;;;;27.75;16.88;;;8.90;99.90;;;;;;5040571;28;20032;-45
2021/05/19 03:17:21;;;;;;;21.17;16.20;;;9.00;99.90;;;;;;5038548;28;20252;-46
2021/05/19 03:19:47;;;;;;;25.02;16.92;;;9.00;99.90;;;;;;5049817;28;20083;-45
2021/05/19 03:22:13;;;;;;;24.33;17.02;;;9.10;99.90;;;;;;5050136;28;20036;-45
2021/05/19 03:24:38;;;;;;;24.13;17.05;;;9.00;99.90;;;;;;5050200;28;20025;-46
2021/05/19 03:27:04;;;;;;;25.17;16.98;;;9.00;99.90;;;;;;5050091;28;20524;-45
2021/05/19 03:29:30;;;;;;;26.85;18.25;;;9.00;99.90;;;;;;5048562;28;20507;-46
2021/05/19 03:31:55;;;;;;;25.83;18.60;;;9.00;99.90;;;;;;5049947;28;20061;-45
2021/05/19 03:34:21;;;;;;;24.45;18.27;;;8.90;99.90;;;;;;5049700;28;20078;-46
2021/05/19 03:36:46;;;;;;;30.90;19.85;;;8.90;99.90;;;;;;5049510;28;20456;-44
2021/05/19 03:39:13;;;;;;;29.83;19.38;;;9.00;99.90;;;;;;5048476;28;20021;-44
2021/05/19 03:41:38;;;;;;;29.60;20.60;;;8.90;99.90;;;;;;5043984;28;20028;-45
2021/05/19 03:44:06;;;;;;;28.08;19.70;;;8.90;99.90;;;;;;5028735;28;20491;-45
2021/05/19 03:46:32;;;;;;;30.30;20.52;;;9.00;99.90;;;;;;5028932;28;20475;-45
2021/05/19 03:48:58;;;;;;;32.65;21.33;;;8.90;99.90;;;;;;5027818;28;20045;-45
2021/05/19 03:51:24;;;;;;;32.83;23.60;;;8.90;99.90;;;;;;5027211;28;20180;-45
2021/05/19 03:53:51;;;;;;;32.55;21.88;;;8.90;99.90;;;;;;5028548;28;20029;-45
2021/05/19 03:56:16;;;;;;;35.35;24.73;;;9.00;99.90;;;;;;5028711;28;20022;-45
2021/05/19 03:58:43;;;;;;;35.63;24.60;;;8.90;99.90;;;;;;5030750;28;20028;-45
2021/05/19 04:01:09;;;;;;;32.47;22.88;;;8.90;99.90;;;;;;5038812;28;20479;-44
2021/05/19 04:03:34;;;;;;;32.72;23.00;;;8.90;99.90;;;;;;5048939;28;20033;-45
2021/05/19 04:06:01;;;;;;;34.15;23.42;;;8.90;99.90;;;;;;5047624;28;20521;-44
2021/05/19 04:08:39;;;;;;;34.67;23.35;;;8.90;99.90;;;;;;5045232;28;20376;-44
2021/05/19 04:11:06;;;;;;;33.05;23.65;;;8.90;99.90;;;;;;5029141;28;20558;-44
2021/05/19 04:13:32;;;;;;;32.65;23.05;;;8.90;99.90;;;;;;5029522;28;20049;-45
2021/05/19 04:15:58;;;;;;;34.17;23.95;;;8.90;99.90;;;;;;5030782;28;20471;-44
2021/05/19 04:18:24;;;;;;;35.05;22.80;;;8.90;99.90;;;;;;5030138;28;20041;-45
2021/05/19 04:20:50;;;;;;;32.85;22.52;;;8.90;99.90;;;;;;5030472;28;20022;-46
2021/05/19 04:23:16;;;;;;;32.83;23.13;;;8.90;99.90;;;;;;5030029;28;20037;-44
2021/05/19 04:25:42;;;;;;;35.13;22.45;;;9.00;99.90;;;;;;5030655;28;20033;-45
2021/05/19 04:28:08;;;;;;;34.83;23.70;;;9.00;99.90;;;;;;5029885;28;20037;-44
2021/05/19 04:30:34;;;;;;;35.03;23.73;;;9.00;99.90;;;;;;5030220;28;20033;-47
2021/05/19 04:33:00;;;;;;;37.75;23.90;;;9.00;99.90;;;;;;5029013;28;20056;-45
2021/05/19 04:35:26;;;;;;;36.55;22.63;;;9.10;99.90;;;;;;5030034;28;20060;-44
2021/05/19 04:37:51;;;;;;;36.17;23.45;;;9.20;99.90;;;;;;5031730;28;20510;-44
2021/05/19 04:40:17;;;;;;;32.65;21.83;;;9.30;99.90;;;;;;5036924;28;20032;-45
2021/05/19 04:42:43;;;;;;;31.63;21.90;;;9.40;99.90;;;;;;5037473;28;20478;-45
2021/05/19 04:45:09;;;;;;;27.95;19.58;;;9.50;99.90;;;;;;5039453;28;20031;-44
2021/05/19 04:47:35;;;;;;;26.17;18.77;;;9.60;99.90;;;;;;5037291;28;20246;-44
2021/05/19 04:50:01;;;;;;;30.00;16.77;;;9.70;99.90;;;;;;5038671;28;20078;-46
2021/05/19 04:52:27;;;;;;;23.30;17.13;;;9.80;99.90;;;;;;5037557;28;20053;-45
2021/05/19 04:54:53;;;;;;;25.30;17.90;;;9.90;99.90;;;;;;5032183;28;20418;-45
2021/05/19 04:57:18;;;;;;;22.60;16.80;;;9.90;99.90;;;;;;5047299;28;20391;-45
2021/05/19 04:59:44;;;;;;;27.02;16.88;;;10.00;99.90;;;;;;5038981;28;20037;-44
2021/05/19 05:02:09;;;;;;;22.15;15.50;;;10.00;99.90;;;;;;5027053;28;20033;-44
2021/05/19 05:04:36;;;;;;;21.90;15.40;;;10.10;99.90;;;;;;5032089;28;20083;-48
2021/05/19 05:07:01;;;;;;;20.60;14.90;;;10.20;99.90;;;;;;5044439;28;20490;-44
2021/05/19 05:09:27;;;;;;;21.10;14.82;;;10.30;99.90;;;;;;5039415;28;20033;-45
2021/05/19 05:11:53;;;;;;;22.02;15.35;;;10.40;99.90;;;;;;5032206;28;20024;-45
2021/05/19 05:14:19;;;;;;;20.73;14.18;;;10.50;99.90;;;;;;5036976;28;20071;-49
2021/05/19 05:16:44;;;;;;;22.02;15.18;;;10.50;99.90;;;;;;5035419;28;20030;-45
2021/05/19 05:19:10;;;;;;;20.80;13.80;;;10.60;99.90;;;;;;5028397;28;20022;-45
2021/05/19 05:21:35;;;;;;;19.52;13.48;;;10.50;99.90;;;;;;5046804;28;20040;-44
2021/05/19 05:24:01;;;;;;;18.88;14.60;;;10.50;99.90;;;;;;5045729;28;20660;-47
2021/05/19 05:26:28;;;;;;;17.38;12.88;;;10.60;99.90;;;;;;5031891;28;20045;-45
2021/05/19 05:28:54;;;;;;;19.88;14.45;;;10.70;99.90;;;;;;5026289;28;20494;-45
2021/05/19 05:31:20;;;;;;;23.02;16.98;;;10.70;99.90;;;;;;5027450;28;20029;-50
2021/05/19 05:33:46;;;;;;;24.85;17.20;;;10.70;99.90;;;;;;5027724;28;20120;-50
2021/05/19 05:36:13;;;;;;;22.65;16.08;;;10.70;99.90;;;;;;5040007;28;20071;-44
2021/05/19 05:38:38;;;;;;;24.05;17.42;;;10.80;99.90;;;;;;5037137;28;20430;-46
2021/05/19 05:41:04;;;;;;;25.98;18.55;;;11.00;99.90;;;;;;5033502;28;20041;-44
2021/05/19 05:43:29;;;;;;;21.90;16.30;;;10.90;99.90;;;;;;5043012;28;20043;-44
2021/05/19 05:45:55;;;;;;;27.08;19.48;;;11.00;99.90;;;;;;5038535;28;20026;-45
2021/05/19 05:48:20;;;;;;;25.90;18.23;;;11.10;99.90;;;;;;5045114;28;20048;-43
2021/05/19 05:50:46;;;;;;;28.98;17.80;;;11.20;99.90;;;;;;5067508;28;20477;-44
2021/05/19 05:53:11;;;;;;;28.83;18.15;;;11.20;99.90;;;;;;5057569;28;20025;-45
2021/05/19 05:55:38;;;;;;;25.92;18.02;;;11.20;99.90;;;;;;5054578;28;20469;-44
2021/05/19 05:58:03;;;;;;;28.63;18.08;;;11.20;99.90;;;;;;5067308;28;20090;-45
2021/05/19 06:00:29;;;;;;;22.90;15.75;;;11.20;99.90;;;;;;5052312;28;20580;-44
2021/05/19 06:02:54;;;;;;;27.05;17.73;;;11.20;99.90;;;;;;5062043;28;20390;-43
2021/05/19 06:05:20;;;;;;;25.65;16.38;;;11.20;99.90;;;;;;5065249;28;20035;-44
2021/05/19 06:07:45;;;;;;;27.67;18.65;;;11.20;99.90;;;;;;5054619;28;20061;-45
2021/05/19 06:10:11;;;;;;;24.55;17.30;;;11.10;99.90;;;;;;5056855;28;20496;-44
2021/05/19 06:12:37;;;;;;;26.48;17.65;;;11.10;99.90;;;;;;5059189;28;20100;-45
2021/05/19 06:15:04;;;;;;;27.42;18.65;;;11.10;99.90;;;;;;5060670;28;20143;-44
2021/05/19 06:17:29;;;;;;;26.85;16.83;;;11.00;99.90;;;;;;5065660;28;20103;-44
2021/05/19 06:19:55;;;;;;;26.40;17.40;;;11.20;99.90;;;;;;5071619;28;20505;-45
2021/05/19 06:22:21;;;;;;;22.52;15.95;;;11.20;99.90;;;;;;5034048;28;20033;-44
2021/05/19 06:24:47;;;;;;;23.77;16.90;;;11.40;99.90;;;;;;5035801;28;20100;-44
2021/05/19 06:27:13;;;;;;;24.67;17.23;;;11.50;99.90;;;;;;5044839;28;20025;-46
2021/05/19 06:29:39;;;;;;;25.13;16.55;;;11.50;99.90;;;;;;5040892;28;20119;-44
2021/05/19 06:32:05;;;;;;;25.90;17.02;;;11.60;99.90;;;;;;5039339;28;20022;-44
2021/05/19 06:34:30;;;;;;;23.90;16.98;;;11.60;99.90;;;;;;5043049;28;20097;-43
2021/05/19 06:36:56;;;;;;;22.63;16.33;;;11.50;99.90;;;;;;5062480;28;20109;-44
2021/05/19 06:39:23;;;;;;;22.00;15.68;;;11.50;99.90;;;;;;5066258;28;20393;-44
2021/05/19 06:41:49;;;;;;;25.85;14.98;;;11.70;99.90;;;;;;5048344;28;20071;-43
2021/05/19 06:44:17;;;;;;;24.75;15.93;;;11.70;99.90;;;;;;5049248;28;20055;-44
2021/05/19 06:46:44;;;;;;;21.15;15.32;;;11.70;99.90;;;;;;5049563;28;20029;-44
2021/05/19 06:49:09;;;;;;;22.48;15.95;;;11.70;99.90;;;;;;5045979;28;20020;-45
2021/05/19 06:51:35;;;;;;;17.92;13.52;;;11.70;99.90;;;;;;5043096;28;20029;-43
2021/05/19 06:54:01;;;;;;;20.63;15.38;;;11.70;99.90;;;;;;5050476;28;20483;-44
2021/05/19 06:56:27;;;;;;;21.45;15.35;;;11.60;99.90;;;;;;5045791;28;20529;-44
2021/05/19 06:58:54;;;;;;;21.05;15.10;;;11.60;99.90;;;;;;5049856;28;20033;-45
2021/05/19 07:01:19;;;;;;;21.52;15.45;;;11.60;99.90;;;;;;5038703;28;20037;-44
2021/05/19 07:03:45;;;;;;;21.95;15.93;;;11.60;99.90;;;;;;5035116;28;20030;-44
2021/05/19 07:06:11;;;;;;;18.67;14.52;;;11.50;99.90;;;;;;5037532;28;20115;-44
2021/05/19 07:08:36;;;;;;;21.20;15.63;;;11.50;99.90;;;;;;5040951;28;20040;-45
2021/05/19 07:11:02;;;;;;;20.52;15.73;;;11.50;99.90;;;;;;5038844;28;20432;-44
2021/05/19 07:13:28;;;;;;;24.23;17.15;;;11.60;99.90;;;;;;5040169;28;20030;-44
2021/05/19 07:15:55;;;;;;;23.30;16.60;;;11.50;99.90;;;;;;5040081;28;20023;-45
2021/05/19 07:18:21;;;;;;;21.88;16.92;;;11.50;99.90;;;;;;5038293;28;20048;-45
2021/05/19 07:20:47;;;;;;;22.23;15.88;;;11.50;99.90;;;;;;5038104;28;20025;-45
2021/05/19 07:23:13;;;;;;;23.13;16.30;;;11.70;99.90;;;;;;5040351;28;20026;-44
2021/05/19 07:25:40;;;;;;;19.48;15.23;;;11.80;99.90;;;;;;5038512;28;20040;-44
2021/05/19 07:28:08;;;;;;;23.23;16.90;;;12.10;99.90;;;;;;5041214;28;20025;-45
2021/05/19 07:30:34;;;;;;;20.58;15.00;;;12.10;99.90;;;;;;5049984;28;20034;-44
2021/05/19 07:33:00;;;;;;;22.25;15.80;;;12.20;99.90;;;;;;5050195;28;20017;-44
2021/05/19 07:35:26;;;;;;;21.52;15.68;;;12.30;99.90;;;;;;5042938;28;20018;-45
2021/05/19 07:37:52;;;;;;;18.33;14.40;;;12.50;99.90;;;;;;5038582;28;20021;-45
2021/05/19 07:40:21;;;;;;;23.33;16.05;;;12.60;99.90;;;;;;5040116;28;20036;-44
2021/05/19 07:42:46;;;;;;;18.55;13.77;;;12.70;99.90;;;;;;5037869;28;20025;-44
2021/05/19 07:45:12;;;;;;;19.02;13.23;;;12.90;99.90;;;;;;5038594;28;20021;-48
2021/05/19 07:47:37;;;;;;;18.42;12.80;;;13.10;99.90;;;;;;5036612;28;20025;-45
2021/05/19 07:50:04;;;;;;;13.93;11.68;;;13.40;99.90;;;;;;5036650;28;20120;-44
2021/05/19 07:52:30;;;;;;;18.55;12.15;;;13.60;99.90;;;;;;5035565;28;20100;-44
2021/05/19 07:54:56;;;;;;;12.23;9.95;;;14.00;99.90;;;;;;5038125;28;20236;-44
2021/05/19 07:57:56;;;;;;;11.98;9.75;;;14.20;99.90;;;;;;5039363;28;20017;-45
2021/05/19 08:00:16;;;;;;;11.38;9.85;;;14.60;99.90;;;;;;5038667;28;20086;-44
2021/05/19 08:02:44;;;;;;;16.15;10.27;;;15.00;99.90;;;;;;5031880;28;20029;-45
2021/05/19 08:05:10;;;;;;;12.50;10.27;;;14.80;99.90;;;;;;5028135;28;20025;-46
2021/05/19 08:07:36;;;;;;;13.52;9.60;;;14.90;99.90;;;;;;5027495;28;20017;-45
2021/05/19 08:10:01;;;;;;;13.02;10.15;;;15.00;99.90;;;;;;5026757;28;20414;-45
2021/05/19 08:12:27;;;;;;;14.18;10.50;;;14.80;99.90;;;;;;5028074;28;20475;-45
2021/05/19 08:14:52;;;;;;;13.63;10.23;;;14.80;99.90;;;;;;5027664;28;20056;-45
2021/05/19 08:17:19;;;;;;;16.30;11.30;;;14.90;99.90;;;;;;5026827;28;20032;-45
2021/05/19 08:19:46;;;;;;;12.27;9.32;;;15.10;99.90;;;;;;5038894;28;20498;-45
2021/05/19 08:22:13;;;;;;;12.73;9.13;;;15.30;99.90;;;;;;5061102;28;20037;-43
2021/05/19 08:24:42;;;;;;;11.38;9.07;;;15.40;99.90;;;;;;5048029;28;20102;-44
2021/05/19 08:27:08;;;;;;;13.13;8.63;;;15.40;99.90;;;;;;5046964;28;20470;-44
2021/05/19 08:29:34;;;;;;;11.38;8.80;;;15.20;99.90;;;;;;5047017;28;20033;-45
2021/05/19 08:31:59;;;;;;;16.70;12.50;;;14.80;99.90;;;;;;5046433;28;20025;-43
2021/05/19 08:34:25;;;;;;;15.75;11.48;;;14.70;99.90;;;;;;5047741;28;20255;-44
2021/05/19 08:36:51;;;;;;;11.65;8.88;;;14.40;99.90;;;;;;5036279;28;20017;-44
2021/05/19 08:39:18;;;;;;;12.98;9.60;;;14.20;99.90;;;;;;5047110;28;20048;-43
2021/05/19 08:41:48;;;;;;;12.65;9.05;;;14.00;99.90;;;;;;5045709;28;20040;-44
2021/05/19 08:44:15;;;;;;;11.75;8.65;;;13.90;99.90;;;;;;5027914;28;20064;-44
2021/05/19 08:46:44;;;;;;;12.18;9.27;;;13.80;99.90;;;;;;5032734;28;20116;-45
2021/05/19 08:49:11;;;;;;;13.17;9.53;;;13.70;99.90;;;;;;5026718;28;20740;-45
2021/05/19 08:51:37;;;;;;;15.00;9.75;;;13.70;99.90;;;;;;5035270;28;20059;-45
2021/05/19 08:54:05;;;;;;;8.05;7.20;;;14.30;99.90;;;;;;5047534;28;20028;-47
2021/05/19 08:56:30;;;;;;;11.13;7.05;;;16.00;99.90;;;;;;5040187;28;20057;-46
2021/05/19 08:58:56;;;;;;;7.65;5.88;;;17.50;99.90;;;;;;5026843;28;20068;-45
2021/05/19 09:01:23;;;;;;;8.38;5.40;;;18.80;97.20;;;;;;5027197;28;20112;-46
2021/05/19 09:04:06;;;;;;;8.23;6.20;;;21.10;90.20;;;;;;5026407;28;20713;-45
2021/05/19 09:06:31;;;;;;;5.40;4.82;;;21.70;71.60;;;;;;5028749;28;20486;-45
2021/05/19 09:08:57;;;;;;;8.00;5.10;;;23.00;68.50;;;;;;5027027;28;20022;-45
2021/05/19 09:11:23;;;;;;;8.45;6.13;;;23.80;60.90;;;;;;5044221;28;20033;-44
2021/05/19 09:13:48;;;;;;;7.65;6.85;;;23.30;60.90;;;;;;5046823;28;20024;-46
2021/05/19 09:16:29;;;;;;;6.40;5.70;;;22.10;62.20;;;;;;5047106;28;20068;-44
2021/05/19 09:18:56;;;;;;;5.78;5.13;;;20.70;64.30;;;;;;5044230;28;20419;-44
2021/05/19 09:21:43;;;;;;;7.80;5.35;;;19.80;70.50;;;;;;5043992;28;20029;-46
2021/05/19 09:24:31;;;;;;;6.25;5.60;;;18.90;72.80;;;;;;5046882;28;20021;-43
2021/05/19 09:27:02;;;;;;;5.55;5.05;;;18.20;75.70;;;;;;5044039;28;20391;-44
2021/05/19 09:29:33;;;;;;;6.18;5.22;;;17.60;75.20;;;;;;5030955;28;20522;-43
2021/05/19 09:32:02;;;;;;;7.28;6.43;;;17.30;77.70;;;;;;5032921;28;20387;-44
2021/05/19 09:34:30;;;;;;;8.38;5.47;;;16.80;80.10;;;;;;5031143;28;20439;-45
2021/05/19 09:37:11;;;;;;;9.35;5.82;;;16.50;84.60;;;;;;5032261;28;20036;-43
2021/05/19 09:39:49;;;;;;;;;;;16.20;89.20;;;;;;5030909;28;20041;-44
2021/05/19 09:42:16;;;;;;;9.68;8.05;;;16.00;90.50;;;;;;5030978;28;19905;-44
2021/05/19 09:44:45;;;;;;;9.10;7.97;;;15.80;95.20;;;;;;5030989;28;20065;-44
2021/05/19 09:47:11;;;;;;;8.88;7.97;;;15.80;97.90;;;;;;5031934;28;20033;-43
2021/05/19 09:49:37;;;;;;;14.50;8.75;;;16.00;99.30;;;;;;5029799;28;20571;-44
2021/05/19 09:52:13;;;;;;;7.95;6.60;;;16.40;96.80;;;;;;5030265;28;20112;-44
2021/05/19 09:54:45;;;;;;;8.50;7.68;;;18.20;94.80;;;;;;5032793;28;20501;-44
2021/05/19 09:57:14;;;;;;;8.57;7.20;;;19.40;89.60;;;;;;5049670;28;20059;-44
2021/05/19 09:59:42;;;;;;;7.75;6.70;;;18.70;82.60;;;;;;5044305;28;20467;-44
2021/05/19 10:02:09;;;;;;;7.05;5.93;;;19.50;86.40;;;;;;5037186;28;20072;-44
2021/05/19 10:04:38;;;;;;;6.30;5.70;;;19.90;83.00;;;;;;5050052;28;20051;-44
2021/05/19 10:07:10;;;;;;;7.05;5.63;;;20.00;79.70;;;;;;5041268;28;20048;-45
2021/05/19 10:09:36;;;;;;;5.32;4.53;;;20.40;78.30;;;;;;5041364;28;20021;-43
2021/05/19 10:12:03;;;;;;;6.18;4.25;;;21.00;75.90;;;;;;5035426;28;20030;-45
2021/05/19 10:14:28;;;;;;;5.70;3.85;;;20.80;67.70;;;;;;5031658;28;20056;-44
2021/05/19 10:17:07;;;;;;;7.68;4.95;;;21.70;70.40;;;;;;5031482;28;20037;-44
2021/05/19 10:19:37;;;;;;;4.47;4.07;;;23.00;66.00;;;;;;5031221;28;20080;-44
2021/05/19 10:22:07;;;;;;;3.65;3.35;;;24.20;61.80;;;;;;5031318;28;20036;-46
2021/05/19 10:24:53;;;;;;;5.05;4.20;;;24.40;55.20;;;;;;5042043;28;20083;-44
2021/05/19 10:27:21;;;;;;;4.10;3.15;;;24.40;56.10;;;;;;5037669;28;20032;-45
2021/05/19 10:29:56;;;;;;;4.25;3.30;;;24.40;55.30;;;;;;5041095;28;20029;-45
2021/05/19 10:32:22;;;;;;;5.82;2.80;;;24.70;53.80;;;;;;5039821;28;20402;-45
2021/05/19 10:34:49;;;;;;;3.30;3.00;;;25.10;52.00;;;;;;5038408;28;20044;-44
2021/05/19 10:37:26;;;;;;;6.03;3.85;;;26.10;50.20;;;;;;5050794;28;20021;-47
2021/05/19 10:40:07;;;;;;;2.60;2.40;;;27.00;49.50;;;;;;5050905;28;20104;-45
2021/05/19 10:42:35;;;;;;;2.42;2.22;;;27.40;47.30;;;;;;5049420;28;20059;-45
2021/05/19 10:45:12;;;;;;;2.55;2.05;;;26.50;47.00;;;;;;5036995;28;20037;-46
2021/05/19 10:47:37;;;;;;;3.05;2.40;;;25.10;49.10;;;;;;5031734;28;20368;-44
2021/05/19 10:50:14;;;;;;;2.42;2.10;;;25.20;50.70;;;;;;5046153;28;20059;-45
2021/05/19 11:01:10;;;;;;;2.58;2.10;;;27.00;43.80;;;;;;5050947;28;20100;-45
2021/05/19 11:03:39;;;;;;;2.42;2.22;;;27.00;44.90;;;;;;5048671;28;20491;-45
2021/05/19 11:06:10;;;;;;;3.70;1.60;;;27.00;49.60;;;;;;5030691;28;20146;-47
2021/05/19 11:08:37;;;;;;;3.53;1.40;;;27.70;41.30;;;;;;5029699;28;20026;-45
2021/05/19 11:11:29;;;;;;;2.40;1.73;;;27.10;42.80;;;;;;5029852;28;20025;-44
2021/05/19 11:13:58;;;;;;;2.05;1.60;;;27.20;44.90;;;;;;5037286;28;20033;-45
2021/05/19 11:16:28;;;;;;;3.50;1.85;;;27.70;44.70;;;;;;5036788;28;20017;-45
2021/05/19 11:19:08;;;;;;;2.17;1.80;;;28.00;42.10;;;;;;5039407;28;20029;-46
2021/05/19 11:21:34;;;;;;;;;;;27.40;43.30;;;;;;5041050;28;20906;-47
2021/05/19 11:24:13;;;;;;;2.50;2.30;;;27.00;44.40;;;;;;5038794;28;19909;-45
2021/05/19 11:26:41;;;;;;;3.88;2.50;;;27.50;41.80;;;;;;5043931;28;20040;-49
2021/05/19 11:29:07;;;;;;;3.50;2.72;;;27.90;44.60;;;;;;5042420;28;20046;-47
2021/05/19 11:31:41;;;;;;;3.25;2.15;;;27.70;44.60;;;;;;5037986;28;20025;-51
2021/05/19 11:34:08;;;;;;;2.30;1.92;;;27.80;45.40;;;;;;5037533;28;20030;-50
2021/05/19 11:36:42;;;;;;;2.38;2.00;;;27.40;41.00;;;;;;5031971;28;20017;-49
2021/05/19 11:39:39;;;;;;;3.05;2.40;;;27.70;44.10;;;;;;5040708;28;20020;-48
2021/05/19 11:42:17;;;;;;;2.70;2.22;;;26.10;43.60;;;;;;5042718;28;20060;-48
2021/05/19 11:45:02;;;;;;;4.15;2.97;;;25.00;45.00;;;;;;5038104;28;20071;-49
2021/05/19 11:47:27;;;;;;;3.58;3.20;;;23.50;46.30;;;;;;5032648;28;20029;-47
2021/05/19 11:50:24;;;;;;;5.78;2.65;;;22.50;50.90;;;;;;5036005;28;20104;-46
2021/05/19 11:53:09;;;;;;;2.67;2.47;;;21.80;53.10;;;;;;5031925;28;20025;-46
2021/05/19 11:55:46;;;;;;;2.70;2.50;;;21.70;52.50;;;;;;5038499;28;20022;-47
2021/05/19 11:58:18;;;;;;;2.65;2.33;;;22.70;51.50;;;;;;5038278;28;20013;-46
2021/05/19 12:00:48;;;;;;;4.10;2.45;;;23.20;54.00;;;;;;5041543;28;20471;-46
2021/05/19 12:03:16;;;;;;;3.95;2.70;;;23.20;52.10;;;;;;5034035;28;20117;-47
2021/05/19 12:05:44;;;;;;;2.13;1.92;;;22.60;48.60;;;;;;5034027;28;20021;-47
2021/05/19 12:08:10;;;;;;;3.90;2.22;;;22.00;50.30;;;;;;5032254;28;20033;-46
2021/05/19 12:10:35;;;;;;;2.97;2.20;;;21.60;50.30;;;;;;5031585;28;20034;-47
2021/05/19 12:13:03;;;;;;;3.78;2.55;;;21.10;50.70;;;;;;5033601;28;20040;-46
2021/05/19 12:15:32;;;;;;;5.70;3.13;;;20.60;52.80;;;;;;5036731;28;20113;-48
2021/05/19 12:17:59;;;;;;;4.07;2.80;;;20.60;54.20;;;;;;5041845;28;20572;-47
2021/05/19 12:20:26;;;;;;;2.65;2.30;;;20.90;52.90;;;;;;5036918;28;20029;-47
2021/05/19 12:22:59;;;;;;;2.30;2.10;;;21.20;54.30;;;;;;5033220;28;20029;-49
2021/05/19 12:25:24;;;;;;;2.97;2.67;;;20.90;55.50;;;;;;5029142;28;20037;-47
2021/05/19 12:27:52;;;;;;;3.97;2.60;;;20.70;54.50;;;;;;5036849;28;20037;-49
2021/05/19 12:30:19;;;;;;;2.10;1.90;;;21.10;54.70;;;;;;5039326;28;20017;-49
2021/05/19 12:33:08;;;;;;;3.40;2.28;;;21.40;53.70;;;;;;5038789;28;20120;-47
2021/05/19 12:35:41;;;;;;;2.35;2.00;;;21.70;53.70;;;;;;5032425;28;20032;-48
2021/05/19 12:38:07;;;;;;;2.17;1.70;;;21.80;53.40;;;;;;5028806;28;20026;-46
2021/05/19 12:40:34;;;;;;;2.85;1.83;;;21.90;50.00;;;;;;5028980;28;20507;-47
2021/05/19 12:43:07;;;;;;;3.30;1.65;;;21.70;51.10;;;;;;5028986;28;20037;-46
2021/05/19 12:45:35;;;;;;;1.88;1.38;;;22.00;51.00;;;;;;5029186;28;20026;-48
2021/05/19 12:48:07;;;;;;;3.13;1.70;;;21.90;53.40;;;;;;5028801;28;20029;-49
2021/05/19 12:50:40;;;;;;;2.20;1.73;;;21.70;52.30;;;;;;5029883;28;20021;-46